createdAt,value
2022-09-05T00:00:34.177Z,100952.98
2022-09-05T00:01:52.061Z,100965.39
2022-09-05T00:03:09.656Z,100953.41
2022-09-05T00:04:23.929Z,100947.89
2022-09-05T00:05:19.624Z,100956.48
2022-09-05T00:06:23.478Z,100954.85
2022-09-05T00:07:43.283Z,100953.68
2022-09-05T00:08:32.786Z,100953.34
2022-09-05T00:09:39.561Z,100950.61
2022-09-05T00:11:16.772Z,100951.31
2022-09-05T00:11:55.146Z,100962.88
2022-09-05T00:13:06.847Z,100957.30
2022-09-05T00:14:34.426Z,100957.86
2022-09-05T00:15:26.479Z,100965.89
2022-09-05T00:16:32.994Z,100957.37
2022-09-05T00:18:32.456Z,100959.00
2022-09-05T00:20:58.812Z,100952.98
2022-09-05T00:24:21.085Z,100955.49
2022-09-05T00:24:27.844Z,100953.62
2022-09-05T00:24:29.711Z,100957.23
2022-09-05T00:24:42.788Z,100947.89
2022-09-05T00:25:32.873Z,100941.17
2022-09-05T00:26:33.307Z,100945.03
2022-09-05T00:27:39.788Z,100952.34
2022-09-05T00:28:43.659Z,100947.47
2022-09-05T00:30:13.990Z,100954.01
2022-09-05T00:31:50.833Z,100944.11
2022-09-05T00:31:58.701Z,100943.47
2022-09-05T00:33:16.271Z,100944.17
2022-09-05T00:34:11.059Z,100938.95
2022-09-05T00:35:33.079Z,100938.02
2022-09-05T00:36:49.073Z,100941.52
2022-09-05T00:37:52.152Z,100945.31
2022-09-05T00:38:58.882Z,100945.31
2022-09-05T00:40:17.850Z,100945.03
2022-09-05T00:41:18.623Z,100936.92
2022-09-05T00:42:21.305Z,100935.72
2022-09-05T00:43:31.078Z,100935.72
2022-09-05T00:44:34.808Z,100930.48
2022-09-05T00:45:38.540Z,100933.98
2022-09-05T00:46:42.307Z,100932.67
2022-09-05T00:47:48.799Z,100935.40
2022-09-05T00:48:52.563Z,100935.25
2022-09-05T00:51:28.555Z,100927.78
2022-09-05T00:52:32.471Z,100928.39
2022-09-05T00:53:51.404Z,100920.72
2022-09-05T00:55:01.216Z,100927.09
2022-09-05T00:56:21.655Z,100927.09
2022-09-05T00:57:42.559Z,100921.08
2022-09-05T00:58:52.498Z,100920.02
2022-09-05T01:00:08.602Z,100921.08
2022-09-05T01:01:30.219Z,100923.80
2022-09-05T01:02:52.126Z,100918.50
2022-09-05T01:03:59.030Z,100924.69
2022-09-05T01:05:02.887Z,100918.22
2022-09-05T01:06:09.651Z,100924.55
2022-09-05T01:07:16.480Z,100914.80
2022-09-05T01:08:37.059Z,100918.15
2022-09-05T01:09:44.009Z,100924.23
2022-09-05T01:10:50.519Z,100918.93
2022-09-05T01:12:00.338Z,100910.91
2022-09-05T01:13:07.182Z,100908.39
2022-09-05T01:15:28.648Z,100911.50
2022-09-05T01:16:33.946Z,100909.42
2022-09-05T01:17:49.945Z,100911.36
2022-09-05T01:18:59.616Z,100923.09
2022-09-05T01:20:18.681Z,100915.22
2022-09-05T01:21:20.967Z,100908.92
2022-09-05T01:22:40.239Z,100911.22
2022-09-05T01:23:47.149Z,100914.64
2022-09-05T01:25:03.142Z,100912.20
2022-09-05T01:26:06.927Z,100909.62
2022-09-05T01:27:10.630Z,100913.19
2022-09-05T01:29:14.128Z,100910.78
2022-09-05T01:29:21.351Z,100910.84
2022-09-05T01:30:31.851Z,100907.04
2022-09-05T01:31:47.229Z,100907.04
2022-09-05T01:32:50.943Z,100913.12
2022-09-05T01:34:02.866Z,100912.31
2022-09-05T01:35:23.395Z,100911.16
2022-09-05T01:36:30.423Z,100909.80
2022-09-05T01:37:34.489Z,100908.23
2022-09-05T01:39:55.233Z,100909.33
2022-09-05T01:40:14.549Z,100901.23
2022-09-05T01:43:02.163Z,100899.38
2022-09-05T01:44:22.493Z,100902.09
2022-09-05T01:45:39.202Z,100901.52
2022-09-05T01:46:54.557Z,100907.16
2022-09-05T01:48:07.958Z,100900.02
2022-09-05T01:49:14.545Z,100894.72
2022-09-05T01:50:37.282Z,100900.94
2022-09-05T01:51:56.148Z,100897.37
2022-09-05T01:53:06.023Z,100892.71
2022-09-05T01:54:24.604Z,100895.29
2022-09-05T01:55:29.264Z,100904.02
2022-09-05T01:56:48.444Z,100900.17
2022-09-05T01:57:52.372Z,100900.04
2022-09-05T01:58:59.232Z,100896.50
2022-09-05T02:00:06.002Z,100899.44
2022-09-05T02:01:26.623Z,100895.73
2022-09-05T02:02:39.967Z,100893.26
2022-09-05T02:03:44.132Z,100900.56
2022-09-05T02:04:47.953Z,100901.58
2022-09-05T02:06:10.231Z,100897.59
2022-09-05T02:07:30.919Z,100890.56
2022-09-05T02:08:25.573Z,100895.56
2022-09-05T02:09:29.376Z,100899.58
2022-09-05T02:10:33.187Z,100900.02
2022-09-05T02:11:55.470Z,100896.85
2022-09-05T02:13:02.962Z,100879.37
2022-09-05T02:14:04.767Z,100900.03
2022-09-05T02:15:08.625Z,100893.32
2022-09-05T02:16:27.945Z,100889.31
2022-09-05T02:17:49.567Z,100881.81
2022-09-05T02:18:52.401Z,100883.30
2022-09-05T02:19:58.956Z,100889.28
2022-09-05T02:21:01.743Z,100884.19
2022-09-05T02:22:10.582Z,100886.56
2022-09-05T02:23:41.075Z,100883.84
2022-09-05T02:24:35.107Z,100874.09
2022-09-05T02:26:02.773Z,100879.66
2022-09-05T02:26:47.642Z,100879.23
2022-09-05T02:28:04.919Z,100873.52
2022-09-05T02:28:57.071Z,100876.73
2022-09-05T02:30:16.160Z,100880.23
2022-09-05T02:31:20.949Z,100883.59
2022-09-05T02:32:24.854Z,100875.51
2022-09-05T02:33:28.710Z,100864.06
2022-09-05T02:34:32.547Z,100875.51
2022-09-05T02:35:42.496Z,100868.37
2022-09-05T02:36:46.322Z,100878.09
2022-09-05T02:38:38.014Z,100865.65
2022-09-05T02:42:30.457Z,100874.52
2022-09-05T02:45:02.308Z,100866.70
2022-09-05T02:45:09.523Z,100865.65
2022-09-05T02:45:12.358Z,100866.06
2022-09-05T02:45:17.492Z,100867.42
2022-09-05T02:45:27.162Z,100863.06
2022-09-05T02:46:44.758Z,100860.34
2022-09-05T02:47:51.394Z,100858.62
2022-09-05T02:49:01.414Z,100860.98
2022-09-05T02:52:27.581Z,100856.81
2022-09-05T02:57:28.900Z,100855.86
2022-09-05T02:57:29.556Z,100858.76
2022-09-05T02:57:33.868Z,100862.03
2022-09-05T02:57:35.418Z,100865.27
2022-09-05T02:57:37.224Z,100862.64
2022-09-05T02:57:43.271Z,100866.25
2022-09-05T02:58:07.295Z,100868.38
2022-09-05T02:59:16.314Z,100867.71
2022-09-05T03:00:06.683Z,100871.89
2022-09-05T03:01:19.734Z,100868.53
2022-09-05T03:02:32.506Z,100871.75
2022-09-05T03:03:39.597Z,100862.48
2022-09-05T03:04:46.085Z,100880.79
2022-09-05T03:05:51.659Z,100871.72
2022-09-05T03:06:58.459Z,100877.84
2022-09-05T03:08:05.083Z,100809.23
2022-09-05T03:09:17.175Z,100876.12
2022-09-05T03:10:17.725Z,100882.93
2022-09-05T03:11:27.442Z,100875.01
2022-09-05T03:12:31.181Z,100873.07
2022-09-05T03:13:54.505Z,100837.45
2022-09-05T03:15:18.687Z,100875.78
2022-09-05T03:16:29.212Z,100879.96
2022-09-05T03:17:38.918Z,100873.81
2022-09-05T03:18:45.641Z,100872.78
2022-09-05T03:19:52.376Z,100873.60
2022-09-05T03:21:12.934Z,100879.04
2022-09-05T03:22:25.979Z,100879.96
2022-09-05T03:23:36.189Z,100878.09
2022-09-05T03:24:58.071Z,100884.25
2022-09-05T03:26:08.882Z,100882.39
2022-09-05T03:27:22.334Z,100877.45
2022-09-05T03:28:44.595Z,100879.96
2022-09-05T03:29:58.881Z,100873.53
2022-09-05T03:31:22.563Z,100880.38
2022-09-05T03:32:41.958Z,100880.08
2022-09-05T03:33:49.046Z,100872.29
2022-09-05T03:34:52.783Z,100881.55
2022-09-05T03:36:15.343Z,100881.69
2022-09-05T03:37:37.616Z,100868.94
2022-09-05T03:38:41.374Z,100872.44
2022-09-05T03:40:00.739Z,100871.45
2022-09-05T03:41:06.894Z,100872.37
2022-09-05T03:42:14.593Z,100858.89
2022-09-05T03:43:23.384Z,100870.63
2022-09-05T03:44:32.916Z,100871.59
2022-09-05T03:45:37.781Z,100868.23
2022-09-05T03:47:00.271Z,100868.80
2022-09-05T03:48:27.902Z,100873.53
2022-09-05T03:53:09.172Z,100874.23
2022-09-05T03:57:04.182Z,100876.82
2022-09-05T03:57:05.155Z,100867.91
2022-09-05T03:57:11.362Z,100877.03
2022-09-05T03:57:13.298Z,100878.38
2022-09-05T03:57:19.057Z,100880.81
2022-09-05T03:57:20.404Z,100878.23
2022-09-05T03:57:43.455Z,100876.96
2022-09-05T03:59:05.792Z,100878.52
2022-09-05T04:00:09.758Z,100880.10
2022-09-05T04:03:00.025Z,100875.79
2022-09-05T04:05:43.309Z,100845.57
2022-09-05T04:08:07.316Z,100879.08
2022-09-05T04:08:08.766Z,100883.53
2022-09-05T04:08:24.210Z,100883.39
2022-09-05T04:08:24.733Z,100877.53
2022-09-05T04:08:31.042Z,100876.67
2022-09-05T04:09:43.380Z,100876.00
2022-09-05T04:10:31.788Z,100881.80
2022-09-05T04:11:36.071Z,100876.35
2022-09-05T04:12:39.846Z,100874.51
2022-09-05T04:13:46.820Z,100875.50
2022-09-05T04:14:51.079Z,100876.06
2022-09-05T04:16:00.795Z,100853.36
2022-09-05T04:17:04.834Z,100877.50
2022-09-05T04:18:13.390Z,100872.20
2022-09-05T04:19:26.042Z,100880.23
2022-09-05T04:20:46.536Z,100884.50
2022-09-05T04:21:50.300Z,100883.80
2022-09-05T04:23:09.426Z,100883.51
2022-09-05T04:24:13.243Z,100888.67
2022-09-05T04:25:17.279Z,100876.17
2022-09-05T04:26:38.147Z,100882.33
2022-09-05T04:27:58.665Z,100880.64
2022-09-05T04:29:14.686Z,100879.68
2022-09-05T04:30:38.937Z,100877.03
2022-09-05T04:31:40.903Z,100884.91
2022-09-05T04:33:03.019Z,100883.91
2022-09-05T04:34:09.912Z,100878.46
2022-09-05T04:35:19.802Z,100879.23
2022-09-05T04:36:23.641Z,100884.69
2022-09-05T04:37:30.338Z,100885.50
2022-09-05T04:38:36.031Z,100889.81
2022-09-05T04:39:38.063Z,100891.98
2022-09-05T04:40:47.982Z,100887.23
2022-09-05T04:41:54.724Z,100890.95
2022-09-05T04:42:58.544Z,100886.97
2022-09-05T04:44:02.608Z,100883.47
2022-09-05T04:45:10.566Z,100883.17
2022-09-05T04:46:18.820Z,100882.06
2022-09-05T04:47:29.622Z,100890.03
2022-09-05T04:48:36.243Z,100888.00
2022-09-05T04:49:41.710Z,100888.66
2022-09-05T04:50:56.436Z,100890.97
2022-09-05T04:52:25.729Z,100883.51
2022-09-05T04:53:33.459Z,100886.62
2022-09-05T04:54:37.167Z,100890.28
2022-09-05T04:55:41.139Z,100885.55
2022-09-05T04:56:46.671Z,100887.58
2022-09-05T04:57:50.396Z,100893.66
2022-09-05T05:01:24.298Z,100899.05
2022-09-05T05:04:32.436Z,100889.84
2022-09-05T05:06:00.876Z,100888.02
2022-09-05T05:06:01.443Z,100891.14
2022-09-05T05:06:13.897Z,100876.73
2022-09-05T05:06:16.909Z,100868.33
2022-09-05T05:06:19.102Z,100882.38
2022-09-05T05:06:46.766Z,100880.20
2022-09-05T05:07:49.907Z,100873.75
2022-09-05T05:09:03.235Z,100873.34
2022-09-05T05:10:51.093Z,100869.33
2022-09-05T05:16:34.105Z,100876.77
2022-09-05T05:17:55.650Z,100874.12
2022-09-05T05:17:59.514Z,100872.84
2022-09-05T05:18:06.546Z,100834.75
2022-09-05T05:18:11.814Z,100872.50
2022-09-05T05:18:14.074Z,100865.62
2022-09-05T05:18:48.840Z,100875.85
2022-09-05T05:19:47.542Z,100884.77
2022-09-05T05:20:56.277Z,100879.86
2022-09-05T05:22:00.293Z,100869.03
2022-09-05T05:23:06.596Z,100875.73
2022-09-05T05:24:11.222Z,100873.30
2022-09-05T05:25:13.690Z,100889.09
2022-09-05T05:26:20.725Z,100883.72
2022-09-05T05:27:25.350Z,100890.39
2022-09-05T05:28:29.257Z,100892.11
2022-09-05T05:29:39.273Z,100886.88
2022-09-05T05:30:41.480Z,100877.42
2022-09-05T05:31:48.093Z,100881.73
2022-09-05T05:32:51.835Z,100879.73
2022-09-05T05:33:55.768Z,100889.54
2022-09-05T05:35:03.195Z,100836.86
2022-09-05T05:36:07.114Z,100840.09
2022-09-05T05:37:23.191Z,100886.70
2022-09-05T05:38:27.065Z,100878.98
2022-09-05T05:39:29.733Z,100842.18
2022-09-05T05:40:33.987Z,100886.12
2022-09-05T05:41:41.562Z,100893.79
2022-09-05T05:42:44.178Z,100891.56
2022-09-05T05:43:48.299Z,100890.42
2022-09-05T05:44:55.010Z,100863.38
2022-09-05T05:45:58.992Z,100892.58
2022-09-05T05:47:02.718Z,100897.91
2022-09-05T05:48:06.260Z,100898.84
2022-09-05T05:49:18.862Z,100898.08
2022-09-05T05:50:41.107Z,100902.05
2022-09-05T05:52:00.923Z,100904.09
2022-09-05T05:53:02.862Z,100913.77
2022-09-05T05:54:23.816Z,100923.58
2022-09-05T05:55:51.915Z,100920.03
2022-09-05T05:57:02.195Z,100911.05
2022-09-05T05:58:14.231Z,100906.70
2022-09-05T05:59:33.469Z,100904.40
2022-09-05T06:00:40.370Z,100904.16
2022-09-05T06:01:51.922Z,100896.86
2022-09-05T06:03:25.945Z,100881.58
2022-09-05T06:04:22.346Z,100877.99
2022-09-05T06:05:26.128Z,100871.20
2022-09-05T06:06:45.250Z,100872.67
2022-09-05T06:09:12.751Z,100870.09
2022-09-05T06:14:50.493Z,100877.23
2022-09-05T06:14:52.969Z,100878.16
2022-09-05T06:14:55.253Z,100889.05
2022-09-05T06:14:57.016Z,100892.92
2022-09-05T06:15:08.759Z,100901.45
2022-09-05T06:15:08.918Z,100835.83
2022-09-05T06:16:11.219Z,100899.53
2022-09-05T06:17:27.936Z,100905.58
2022-09-05T06:18:46.009Z,100891.52
2022-09-05T06:22:05.370Z,100885.70
2022-09-05T06:22:09.468Z,100901.66
2022-09-05T06:22:21.529Z,100902.59
2022-09-05T06:23:39.343Z,100906.34
2022-09-05T06:24:49.380Z,100912.95
2022-09-05T06:26:05.998Z,100913.31
2022-09-05T06:27:28.203Z,100915.84
2022-09-05T06:28:32.104Z,100897.15
2022-09-05T06:29:38.530Z,100922.45
2022-09-05T06:30:41.962Z,100911.73
2022-09-05T06:31:48.533Z,100894.28
2022-09-05T06:33:01.940Z,100921.16
2022-09-05T06:34:30.928Z,100917.12
2022-09-05T06:35:20.892Z,100913.53
2022-09-05T06:36:25.202Z,100919.16
2022-09-05T06:37:32.426Z,100910.89
2022-09-05T06:38:39.176Z,100858.95
2022-09-05T06:39:59.591Z,100920.25
2022-09-05T06:41:20.125Z,100915.29
2022-09-05T06:42:42.042Z,100920.39
2022-09-05T06:43:47.123Z,100914.05
2022-09-05T06:45:00.225Z,100916.06
2022-09-05T06:46:12.067Z,100919.77
2022-09-05T06:47:24.026Z,100920.23
2022-09-05T06:48:32.073Z,100917.86
2022-09-05T06:49:37.392Z,100915.13
2022-09-05T06:50:48.201Z,100924.97
2022-09-05T06:51:45.101Z,100921.64
2022-09-05T06:52:54.310Z,100926.08
2022-09-05T06:54:10.428Z,100925.79
2022-09-05T06:55:17.243Z,100932.58
2022-09-05T06:56:25.829Z,100935.66
2022-09-05T06:57:32.929Z,100947.84
2022-09-05T06:58:53.887Z,100954.73
2022-09-05T06:59:59.555Z,100957.23
2022-09-05T07:01:02.167Z,100966.11
2022-09-05T07:02:25.717Z,100960.11
2022-09-05T07:03:26.219Z,100958.80
2022-09-05T07:04:49.306Z,100963.44
2022-09-05T07:05:50.665Z,100967.46
2022-09-05T07:07:01.824Z,100966.58
2022-09-05T07:08:09.303Z,100962.55
2022-09-05T07:09:22.563Z,100963.64
2022-09-05T07:10:38.449Z,100962.86
2022-09-05T07:11:36.622Z,100961.16
2022-09-05T07:12:46.441Z,100958.53
2022-09-05T07:13:56.015Z,100961.10
2022-09-05T07:15:08.613Z,100951.66
2022-09-05T07:16:05.811Z,100956.62
2022-09-05T07:17:10.099Z,100969.47
2022-09-05T07:18:26.281Z,100986.80
2022-09-05T07:19:33.106Z,101008.20
2022-09-05T07:21:15.939Z,101002.31
2022-09-05T07:21:45.447Z,101001.11
2022-09-05T07:23:20.339Z,100990.89
2022-09-05T07:24:13.109Z,100989.34
2022-09-05T07:25:18.325Z,100996.73
2022-09-05T07:26:42.082Z,101001.48
2022-09-05T07:27:41.977Z,101012.12
2022-09-05T07:28:41.722Z,101005.61
2022-09-05T07:29:52.500Z,101000.97
2022-09-05T07:30:55.587Z,101003.03
2022-09-05T07:31:58.834Z,101002.09
2022-09-05T07:33:02.702Z,100994.38
2022-09-05T07:34:21.254Z,100982.11
2022-09-05T07:35:15.107Z,100976.02
2022-09-05T07:36:22.105Z,100965.46
2022-09-05T07:37:31.995Z,100896.59
2022-09-05T07:38:52.491Z,100955.33
2022-09-05T07:39:41.473Z,100952.84
2022-09-05T07:40:47.974Z,100960.32
2022-09-05T07:41:52.045Z,100964.03
2022-09-05T07:43:09.190Z,100968.42
2022-09-05T07:44:04.306Z,100973.74
2022-09-05T07:45:08.283Z,100987.97
2022-09-05T07:46:23.702Z,101004.89
2022-09-05T07:47:30.935Z,101006.45
2022-09-05T07:48:35.670Z,101011.77
2022-09-05T07:49:42.314Z,101017.41
2022-09-05T07:56:17.194Z,101017.48
2022-09-05T07:56:50.385Z,101018.05
2022-09-05T07:57:01.706Z,101015.02
2022-09-05T07:57:04.124Z,101017.76
2022-09-05T07:57:08.066Z,101012.89
2022-09-05T07:57:20.708Z,101030.74
2022-09-05T07:57:52.808Z,101030.09
2022-09-05T07:58:55.102Z,101031.34
2022-09-05T07:59:58.852Z,101032.04
2022-09-05T08:01:01.464Z,101022.41
2022-09-05T08:02:05.799Z,101037.06
2022-09-05T08:03:09.622Z,101036.20
2022-09-05T08:04:13.376Z,101034.02
2022-09-05T08:05:16.471Z,101037.44
2022-09-05T08:06:34.345Z,101027.59
2022-09-05T08:07:49.756Z,101031.83
2022-09-05T08:08:33.103Z,101021.81
2022-09-05T08:10:06.740Z,101022.92
2022-09-05T08:11:22.202Z,101015.48
2022-09-05T08:12:09.904Z,101015.17
2022-09-05T08:13:23.940Z,101011.48
2022-09-05T08:14:40.748Z,101011.48
2022-09-05T08:15:32.610Z,101006.41
2022-09-05T08:16:32.891Z,100999.08
2022-09-05T08:17:36.596Z,100996.66
2022-09-05T08:18:40.943Z,100984.75
2022-09-05T08:19:48.919Z,100979.73
2022-09-05T08:20:52.541Z,100981.06
2022-09-05T08:21:55.252Z,100971.81
2022-09-05T08:23:02.220Z,100963.51
2022-09-05T08:24:13.962Z,100966.53
2022-09-05T08:25:34.959Z,100961.56
2022-09-05T08:26:46.355Z,100956.24
2022-09-05T08:27:53.449Z,100959.39
2022-09-05T08:29:03.363Z,100962.37
2022-09-05T08:30:25.868Z,100966.88
2022-09-05T08:31:12.958Z,100972.48
2022-09-05T08:32:16.886Z,100967.32
2022-09-05T08:33:23.511Z,100958.44
2022-09-05T08:34:32.726Z,100957.02
2022-09-05T08:35:42.292Z,100959.12
2022-09-05T08:36:45.532Z,100970.03
2022-09-05T08:37:48.421Z,100963.34
2022-09-05T08:38:50.679Z,100953.75
2022-09-05T08:40:05.435Z,100945.44
2022-09-05T08:41:51.233Z,100954.10
2022-09-05T08:43:38.081Z,100949.59
2022-09-05T08:46:37.405Z,100956.69
2022-09-05T08:46:41.383Z,100953.78
2022-09-05T08:46:48.716Z,100945.83
2022-09-05T08:47:50.665Z,100949.78
2022-09-05T08:49:00.689Z,100947.38
2022-09-05T08:50:14.810Z,100952.36
2022-09-05T08:51:18.628Z,100953.36
2022-09-05T08:52:25.211Z,100948.73
2022-09-05T08:53:46.676Z,100951.49
2022-09-05T08:55:05.682Z,100956.73
2022-09-05T08:56:07.744Z,100949.00
2022-09-05T08:57:11.547Z,100953.61
2022-09-05T08:58:21.170Z,100959.39
2022-09-05T08:59:32.915Z,100948.23
2022-09-05T09:00:50.394Z,100952.20
2022-09-05T09:02:45.396Z,100949.50
2022-09-05T09:03:15.664Z,100950.45
2022-09-05T09:04:39.977Z,100948.16
2022-09-05T09:05:58.128Z,100939.56
2022-09-05T09:06:36.490Z,100945.77
2022-09-05T09:07:51.747Z,100946.12
2022-09-05T09:08:48.699Z,100935.07
2022-09-05T09:09:58.823Z,100938.19
2022-09-05T09:11:14.973Z,100933.58
2022-09-05T09:12:35.252Z,100927.88
2022-09-05T09:13:54.134Z,100926.58
2022-09-05T09:15:00.196Z,100931.78
2022-09-05T09:16:22.772Z,100923.52
2022-09-05T09:17:41.963Z,100923.48
2022-09-05T09:18:51.524Z,100932.64
2022-09-05T09:20:10.283Z,100931.23
2022-09-05T09:21:26.136Z,100929.09
2022-09-05T09:22:39.246Z,100919.61
2022-09-05T09:23:46.140Z,100921.42
2022-09-05T09:25:14.772Z,100923.57
2022-09-05T09:26:04.567Z,100915.23
2022-09-05T09:27:08.329Z,100917.27
2022-09-05T09:28:50.052Z,100920.05
2022-09-05T09:29:39.697Z,100915.22
2022-09-05T09:31:04.458Z,100916.50
2022-09-05T09:32:17.100Z,100915.12
2022-09-05T09:33:20.953Z,100913.07
2022-09-05T09:34:26.446Z,100920.47
2022-09-05T09:35:36.182Z,100910.58
2022-09-05T09:36:49.004Z,100914.87
2022-09-05T09:38:10.854Z,100902.00
2022-09-05T09:39:38.784Z,100911.23
2022-09-05T09:40:20.459Z,100907.91
2022-09-05T09:41:59.130Z,100902.18
2022-09-05T09:43:08.903Z,100908.13
2022-09-05T09:44:29.465Z,100899.72
2022-09-05T09:45:33.202Z,100900.97
2022-09-05T09:46:45.061Z,100901.70
2022-09-05T09:48:05.299Z,100891.58
2022-09-05T09:49:22.997Z,100893.02
2022-09-05T09:50:17.650Z,100881.45
2022-09-05T09:51:33.441Z,100882.09
2022-09-05T09:52:37.190Z,100884.09
2022-09-05T09:53:43.942Z,100884.82
2022-09-05T09:54:50.982Z,100878.89
2022-09-05T09:56:09.972Z,100882.48
2022-09-05T09:57:30.358Z,100866.06
2022-09-05T09:58:50.912Z,100870.87
2022-09-05T09:59:55.348Z,100872.11
2022-09-05T10:01:02.197Z,100866.75
2022-09-05T10:02:26.731Z,100871.52
2022-09-05T10:08:57.375Z,100871.37
2022-09-05T10:10:38.768Z,100865.68
2022-09-05T10:10:47.494Z,100863.63
2022-09-05T10:10:47.867Z,100857.19
2022-09-05T10:10:49.915Z,100872.39
2022-09-05T10:10:53.747Z,100866.80
2022-09-05T10:12:20.788Z,100862.16
2022-09-05T10:13:26.763Z,100855.68
2022-09-05T10:14:47.567Z,100860.94
2022-09-05T10:15:54.002Z,100845.94
2022-09-05T10:17:07.379Z,100852.41
2022-09-05T10:18:29.119Z,100855.14
2022-09-05T10:20:09.491Z,100860.26
2022-09-05T10:21:15.367Z,100857.52
2022-09-05T10:23:20.838Z,100874.37
2022-09-05T10:24:27.482Z,100882.51
2022-09-05T10:25:46.356Z,100875.94
2022-09-05T10:27:02.218Z,100880.13
2022-09-05T10:28:09.009Z,100879.69
2022-09-05T10:29:36.960Z,100879.60
2022-09-05T10:30:26.656Z,100882.37
2022-09-05T10:34:04.199Z,100879.60
2022-09-05T10:35:04.672Z,100880.34
2022-09-05T10:35:11.472Z,100877.75
2022-09-05T10:35:22.278Z,100877.86
2022-09-05T10:36:23.476Z,100872.40
2022-09-05T10:37:27.222Z,100873.35
2022-09-05T10:38:39.807Z,100880.64
2022-09-05T10:39:43.670Z,100870.81
2022-09-05T10:41:21.005Z,100869.50
2022-09-05T10:41:55.969Z,100881.93
2022-09-05T10:43:01.327Z,100874.86
2022-09-05T10:44:04.957Z,100867.56
2022-09-05T10:45:08.767Z,100874.48
2022-09-05T10:46:49.572Z,100873.63
2022-09-05T10:47:33.698Z,100878.73
2022-09-05T10:48:55.847Z,100872.96
2022-09-05T10:50:11.913Z,100862.13
2022-09-05T10:51:27.221Z,100860.55
2022-09-05T10:52:27.215Z,100866.31
2022-09-05T10:53:39.422Z,100868.00
2022-09-05T10:55:01.268Z,100854.52
2022-09-05T10:56:01.493Z,100859.31
2022-09-05T10:57:09.539Z,100848.16
2022-09-05T10:58:16.428Z,100847.27
2022-09-05T11:01:33.427Z,100853.53
2022-09-05T11:02:20.275Z,100853.06
2022-09-05T11:02:21.866Z,100852.20
2022-09-05T11:02:42.523Z,100839.52
2022-09-05T11:03:56.483Z,100847.31
2022-09-05T11:05:17.216Z,100855.25
2022-09-05T11:06:25.008Z,100847.83
2022-09-05T11:07:29.387Z,100840.53
2022-09-05T11:08:41.943Z,100841.35
2022-09-05T11:09:48.538Z,100842.36
2022-09-05T11:11:03.039Z,100846.70
2022-09-05T11:12:09.587Z,100841.84
2022-09-05T11:13:16.192Z,100839.50
2022-09-05T11:14:26.812Z,100844.36
2022-09-05T11:15:31.444Z,100847.70
2022-09-05T11:16:38.479Z,100841.77
2022-09-05T11:17:42.299Z,100839.89
2022-09-05T11:19:01.756Z,100836.75
2022-09-05T11:20:05.482Z,100832.70
2022-09-05T11:21:11.292Z,100826.53
2022-09-05T11:22:23.863Z,100830.12
2022-09-05T11:23:19.343Z,100823.41
2022-09-05T11:24:35.404Z,100834.31
2022-09-05T11:25:40.527Z,100830.55
2022-09-05T11:26:54.519Z,100829.69
2022-09-05T11:27:55.014Z,100817.77
2022-09-05T11:29:00.386Z,100821.42
2022-09-05T11:30:30.392Z,100815.57
2022-09-05T11:31:24.974Z,100822.41
2022-09-05T11:36:21.585Z,100820.20
2022-09-05T11:39:52.398Z,100826.06
2022-09-05T11:39:54.233Z,100827.66
2022-09-05T11:39:56.397Z,100825.34
2022-09-05T11:39:59.807Z,100819.73
2022-09-05T11:40:02.213Z,100837.52
2022-09-05T11:40:06.359Z,100836.80
2022-09-05T11:41:05.178Z,100835.70
2022-09-05T11:42:09.129Z,100828.86
2022-09-05T11:43:25.575Z,100829.47
2022-09-05T11:44:29.346Z,100828.37
2022-09-05T11:45:50.212Z,100830.89
2022-09-05T11:46:56.916Z,100824.77
2022-09-05T11:48:02.397Z,100832.31
2022-09-05T11:49:06.165Z,100822.09
2022-09-05T11:50:12.918Z,100826.72
2022-09-05T11:51:19.675Z,100827.87
2022-09-05T11:52:31.204Z,100824.58
2022-09-05T11:53:51.620Z,100818.07
2022-09-05T11:54:55.668Z,100818.14
2022-09-05T11:56:02.703Z,100822.97
2022-09-05T11:57:32.391Z,100816.19
2022-09-05T11:58:44.809Z,100811.50
2022-09-05T12:00:09.273Z,100813.70
2022-09-05T12:01:41.199Z,100816.27
2022-09-05T12:02:28.236Z,100818.52
2022-09-05T12:03:58.230Z,100814.88
2022-09-05T12:04:40.835Z,100807.33
2022-09-05T12:05:59.363Z,100804.88
2022-09-05T12:07:07.344Z,100812.98
2022-09-05T12:08:08.761Z,100814.53
2022-09-05T12:09:23.842Z,100813.53
2022-09-05T12:10:46.159Z,100809.17
2022-09-05T12:11:51.577Z,100808.79
2022-09-05T12:12:55.334Z,100816.79
2022-09-05T12:13:59.196Z,100805.26
2022-09-05T12:15:07.407Z,100808.34
2022-09-05T12:17:35.285Z,100798.98
2022-09-05T12:18:45.838Z,100799.96
2022-09-05T12:19:52.619Z,100800.95
2022-09-05T12:20:59.128Z,100797.28
2022-09-05T12:22:23.663Z,100804.48
2022-09-05T12:24:10.924Z,100804.83
2022-09-05T12:25:26.747Z,100806.79
2022-09-05T12:27:38.516Z,100802.16
2022-09-05T12:27:40.543Z,100805.31
2022-09-05T12:29:27.514Z,100801.66
2022-09-05T12:29:38.815Z,100813.47
2022-09-05T12:30:49.018Z,100810.97
2022-09-05T12:32:50.437Z,100786.88
2022-09-05T12:36:02.620Z,100812.25
2022-09-05T12:36:10.277Z,100809.77
2022-09-05T12:36:11.387Z,100814.57
2022-09-05T12:40:30.215Z,100816.42
2022-09-05T12:40:43.589Z,100810.77
2022-09-05T12:40:55.185Z,100813.17
2022-09-05T12:41:33.758Z,100813.17
2022-09-05T12:41:37.999Z,100818.14
2022-09-05T12:42:09.901Z,100803.63
2022-09-05T12:42:14.006Z,100814.73
2022-09-05T12:44:14.882Z,100810.91
2022-09-05T12:44:42.556Z,100813.36
2022-09-05T12:45:37.435Z,100812.73
2022-09-05T12:46:45.918Z,100808.45
2022-09-05T12:47:53.277Z,100807.50
2022-09-05T12:49:07.012Z,100806.54
2022-09-05T12:50:15.806Z,100814.34
2022-09-05T12:51:46.177Z,100807.77
2022-09-05T12:52:34.060Z,100806.36
2022-09-05T12:53:55.898Z,100801.23
2022-09-05T12:54:59.375Z,100812.94
2022-09-05T12:57:41.912Z,100804.64
2022-09-05T13:02:22.076Z,100804.02
2022-09-05T13:02:57.432Z,100810.00
2022-09-05T13:02:58.813Z,100809.84
2022-09-05T13:03:07.157Z,100802.99
2022-09-05T13:03:07.543Z,100802.80
2022-09-05T13:03:09.050Z,100806.36
2022-09-05T13:04:20.178Z,100800.34
2022-09-05T13:05:14.333Z,100803.69
2022-09-05T13:06:26.131Z,100798.14
2022-09-05T13:07:42.108Z,100790.22
2022-09-05T13:08:45.754Z,100784.11
2022-09-05T13:12:45.248Z,100788.02
2022-09-05T13:14:48.663Z,100790.71
2022-09-05T13:14:57.072Z,100791.97
2022-09-05T13:14:57.190Z,100781.30
2022-09-05T13:15:07.802Z,100789.98
2022-09-05T13:15:38.494Z,100791.86
2022-09-05T13:16:42.571Z,100797.45
2022-09-05T13:17:46.318Z,100799.29
2022-09-05T13:18:50.031Z,100792.53
2022-09-05T13:19:52.681Z,100787.41
2022-09-05T13:20:56.523Z,100795.34
2022-09-05T13:22:00.246Z,100793.88
2022-09-05T13:23:04.275Z,100791.55
2022-09-05T13:24:14.081Z,100787.42
2022-09-05T13:25:20.895Z,100789.22